sensor_id;sensor_type;location;lat;lon;timestamp;P1;durP1;ratioP1;P2;durP2;ratioP2
66425;SDS011;53237;46.158;14.604;2023-03-01T00:00:37;21.50;;;17.92;;
66425;SDS011;53237;46.158;14.604;2023-03-01T00:03:03;20.85;;;17.35;;
66425;SDS011;53237;46.158;14.604;2023-03-01T00:05:29;22.73;;;18.15;;
66425;SDS011;53237;46.158;14.604;2023-03-01T00:07:55;20.67;;;17.48;;
66425;SDS011;53237;46.158;14.604;2023-03-01T00:10:21;21.33;;;18.38;;
66425;SDS011;53237;46.158;14.604;2023-03-01T00:12:47;22.75;;;19.35;;
66425;SDS011;53237;46.158;14.604;2023-03-01T00:15:13;23.50;;;19.40;;
66425;SDS011;53237;46.158;14.604;2023-03-01T00:17:39;20.60;;;16.98;;
66425;SDS011;53237;46.158;14.604;2023-03-01T00:20:05;26.33;;;20.42;;
66425;SDS011;53237;46.158;14.604;2023-03-01T00:22:35;24.63;;;20.40;;
66425;SDS011;53237;46.158;14.604;2023-03-01T00:25:01;24.45;;;19.50;;
66425;SDS011;53237;46.158;14.604;2023-03-01T00:27:27;24.60;;;19.52;;
66425;SDS011;53237;46.158;14.604;2023-03-01T00:29:53;24.90;;;20.38;;
66425;SDS011;53237;46.158;14.604;2023-03-01T00:32:19;24.23;;;19.77;;
66425;SDS011;53237;46.158;14.604;2023-03-01T00:34:45;21.42;;;17.50;;
66425;SDS011;53237;46.158;14.604;2023-03-01T00:37:22;22.25;;;18.40;;
66425;SDS011;53237;46.158;14.604;2023-03-01T00:39:48;24.20;;;19.58;;
66425;SDS011;53237;46.158;14.604;2023-03-01T00:42:14;22.98;;;18.48;;
66425;SDS011;53237;46.158;14.604;2023-03-01T00:44:40;25.08;;;20.38;;
66425;SDS011;53237;46.158;14.604;2023-03-01T00:47:07;24.77;;;19.98;;
66425;SDS011;53237;46.158;14.604;2023-03-01T00:49:32;24.02;;;19.75;;
66425;SDS011;53237;46.158;14.604;2023-03-01T00:51:58;27.48;;;20.58;;
66425;SDS011;53237;46.158;14.604;2023-03-01T00:54:24;22.35;;;18.77;;
66425;SDS011;53237;46.158;14.604;2023-03-01T00:56:50;25.00;;;20.02;;
66425;SDS011;53237;46.158;14.604;2023-03-01T00:59:16;21.77;;;17.73;;
66425;SDS011;53237;46.158;14.604;2023-03-01T01:01:42;26.77;;;21.67;;
66425;SDS011;53237;46.158;14.604;2023-03-01T01:04:09;23.23;;;19.15;;
66425;SDS011;53237;46.158;14.604;2023-03-01T01:06:37;23.50;;;18.85;;
66425;SDS011;53237;46.158;14.604;2023-03-01T01:09:05;28.30;;;22.92;;
66425;SDS011;53237;46.158;14.604;2023-03-01T01:11:31;26.80;;;20.67;;
66425;SDS011;53237;46.158;14.604;2023-03-01T01:13:58;24.77;;;20.45;;
66425;SDS011;53237;46.158;14.604;2023-03-01T01:16:25;23.08;;;18.60;;
66425;SDS011;53237;46.158;14.604;2023-03-01T01:18:51;23.23;;;18.63;;
66425;SDS011;53237;46.158;14.604;2023-03-01T01:21:18;32.08;;;22.80;;
66425;SDS011;53237;46.158;14.604;2023-03-01T01:23:44;22.70;;;19.33;;
66425;SDS011;53237;46.158;14.604;2023-03-01T01:26:12;21.27;;;17.92;;
66425;SDS011;53237;46.158;14.604;2023-03-01T01:28:38;23.52;;;19.02;;
66425;SDS011;53237;46.158;14.604;2023-03-01T01:31:05;26.38;;;20.25;;
66425;SDS011;53237;46.158;14.604;2023-03-01T01:33:31;24.85;;;20.48;;
66425;SDS011;53237;46.158;14.604;2023-03-01T01:35:57;29.58;;;21.58;;
66425;SDS011;53237;46.158;14.604;2023-03-01T01:38:23;24.27;;;20.38;;
66425;SDS011;53237;46.158;14.604;2023-03-01T01:40:49;35.10;;;25.10;;
66425;SDS011;53237;46.158;14.604;2023-03-01T01:43:26;25.40;;;21.15;;
66425;SDS011;53237;46.158;14.604;2023-03-01T01:45:55;27.48;;;22.50;;
66425;SDS011;53237;46.158;14.604;2023-03-01T01:48:22;24.65;;;20.23;;
66425;SDS011;53237;46.158;14.604;2023-03-01T01:50:53;26.63;;;21.27;;
66425;SDS011;53237;46.158;14.604;2023-03-01T01:53:20;25.67;;;21.50;;
66425;SDS011;53237;46.158;14.604;2023-03-01T01:55:47;26.80;;;21.13;;
66425;SDS011;53237;46.158;14.604;2023-03-01T01:58:15;28.00;;;22.30;;
66425;SDS011;53237;46.158;14.604;2023-03-01T02:00:43;22.52;;;19.05;;
66425;SDS011;53237;46.158;14.604;2023-03-01T02:03:10;25.35;;;20.50;;
66425;SDS011;53237;46.158;14.604;2023-03-01T02:05:39;27.75;;;21.02;;
66425;SDS011;53237;46.158;14.604;2023-03-01T02:08:08;27.40;;;21.70;;
66425;SDS011;53237;46.158;14.604;2023-03-01T02:10:35;22.85;;;18.85;;
66425;SDS011;53237;46.158;14.604;2023-03-01T02:13:02;30.75;;;23.48;;
66425;SDS011;53237;46.158;14.604;2023-03-01T02:15:31;27.80;;;22.52;;
66425;SDS011;53237;46.158;14.604;2023-03-01T02:17:58;26.63;;;21.20;;
66425;SDS011;53237;46.158;14.604;2023-03-01T02:23:00;28.35;;;22.05;;
66425;SDS011;53237;46.158;14.604;2023-03-01T02:27:58;27.75;;;21.70;;
66425;SDS011;53237;46.158;14.604;2023-03-01T02:30:26;23.15;;;19.60;;
66425;SDS011;53237;46.158;14.604;2023-03-01T02:32:53;24.90;;;19.73;;
66425;SDS011;53237;46.158;14.604;2023-03-01T02:35:28;24.40;;;19.73;;
66425;SDS011;53237;46.158;14.604;2023-03-01T02:37:54;28.13;;;22.08;;
66425;SDS011;53237;46.158;14.604;2023-03-01T02:40:22;28.27;;;22.58;;
66425;SDS011;53237;46.158;14.604;2023-03-01T02:42:50;26.15;;;20.60;;
66425;SDS011;53237;46.158;14.604;2023-03-01T02:45:17;24.25;;;19.45;;
66425;SDS011;53237;46.158;14.604;2023-03-01T02:47:43;24.92;;;20.45;;
66425;SDS011;53237;46.158;14.604;2023-03-01T02:50:22;22.90;;;18.77;;
66425;SDS011;53237;46.158;14.604;2023-03-01T02:55:17;27.48;;;20.85;;
66425;SDS011;53237;46.158;14.604;2023-03-01T02:57:45;24.73;;;20.00;;
66425;SDS011;53237;46.158;14.604;2023-03-01T03:00:12;24.00;;;18.67;;
66425;SDS011;53237;46.158;14.604;2023-03-01T03:02:44;24.45;;;19.95;;
66425;SDS011;53237;46.158;14.604;2023-03-01T03:05:13;25.00;;;19.33;;
66425;SDS011;53237;46.158;14.604;2023-03-01T03:07:41;22.80;;;19.65;;
66425;SDS011;53237;46.158;14.604;2023-03-01T03:10:08;25.30;;;21.13;;
66425;SDS011;53237;46.158;14.604;2023-03-01T03:12:36;24.92;;;20.55;;
66425;SDS011;53237;46.158;14.604;2023-03-01T03:15:03;23.52;;;18.92;;
66425;SDS011;53237;46.158;14.604;2023-03-01T03:17:33;26.57;;;21.90;;
66425;SDS011;53237;46.158;14.604;2023-03-01T03:19:59;25.77;;;20.33;;
66425;SDS011;53237;46.158;14.604;2023-03-01T03:22:25;24.38;;;19.85;;
66425;SDS011;53237;46.158;14.604;2023-03-01T03:24:53;23.77;;;19.95;;
66425;SDS011;53237;46.158;14.604;2023-03-01T03:27:19;22.92;;;19.80;;
66425;SDS011;53237;46.158;14.604;2023-03-01T03:29:45;27.88;;;21.38;;
66425;SDS011;53237;46.158;14.604;2023-03-01T03:32:11;21.30;;;18.17;;
66425;SDS011;53237;46.158;14.604;2023-03-01T03:34:37;23.65;;;19.35;;
66425;SDS011;53237;46.158;14.604;2023-03-01T03:37:03;21.52;;;19.08;;
66425;SDS011;53237;46.158;14.604;2023-03-01T03:39:49;27.10;;;21.85;;
66425;SDS011;53237;46.158;14.604;2023-03-01T03:42:19;23.88;;;19.48;;
66425;SDS011;53237;46.158;14.604;2023-03-01T03:44:45;23.02;;;19.33;;
66425;SDS011;53237;46.158;14.604;2023-03-01T03:47:11;22.52;;;19.23;;
66425;SDS011;53237;46.158;14.604;2023-03-01T03:49:37;24.13;;;19.88;;
66425;SDS011;53237;46.158;14.604;2023-03-01T03:52:03;22.52;;;18.60;;
66425;SDS011;53237;46.158;14.604;2023-03-01T03:54:29;21.23;;;18.20;;
66425;SDS011;53237;46.158;14.604;2023-03-01T03:56:55;20.77;;;17.85;;
66425;SDS011;53237;46.158;14.604;2023-03-01T03:59:21;21.85;;;18.65;;
66425;SDS011;53237;46.158;14.604;2023-03-01T04:01:47;21.23;;;18.15;;
66425;SDS011;53237;46.158;14.604;2023-03-01T04:04:13;21.90;;;17.55;;
66425;SDS011;53237;46.158;14.604;2023-03-01T04:06:42;22.33;;;19.15;;
66425;SDS011;53237;46.158;14.604;2023-03-01T04:09:08;24.38;;;20.42;;
66425;SDS011;53237;46.158;14.604;2023-03-01T04:11:34;25.90;;;19.65;;
66425;SDS011;53237;46.158;14.604;2023-03-01T04:14:00;22.20;;;17.98;;
66425;SDS011;53237;46.158;14.604;2023-03-01T04:16:29;23.48;;;18.85;;
66425;SDS011;53237;46.158;14.604;2023-03-01T04:18:55;20.27;;;17.52;;
66425;SDS011;53237;46.158;14.604;2023-03-01T04:21:24;22.02;;;17.55;;
66425;SDS011;53237;46.158;14.604;2023-03-01T04:23:50;21.80;;;18.38;;
66425;SDS011;53237;46.158;14.604;2023-03-01T04:26:18;19.63;;;17.52;;
66425;SDS011;53237;46.158;14.604;2023-03-01T04:28:44;23.23;;;19.52;;
66425;SDS011;53237;46.158;14.604;2023-03-01T04:31:17;21.73;;;17.25;;
66425;SDS011;53237;46.158;14.604;2023-03-01T04:33:50;21.15;;;17.52;;
66425;SDS011;53237;46.158;14.604;2023-03-01T04:36:17;19.23;;;15.55;;
66425;SDS011;53237;46.158;14.604;2023-03-01T04:38:43;18.50;;;15.88;;
66425;SDS011;53237;46.158;14.604;2023-03-01T04:41:12;20.60;;;17.55;;
66425;SDS011;53237;46.158;14.604;2023-03-01T04:43:38;20.45;;;16.15;;
66425;SDS011;53237;46.158;14.604;2023-03-01T04:46:05;20.13;;;17.92;;
66425;SDS011;53237;46.158;14.604;2023-03-01T04:48:33;20.17;;;17.30;;
66425;SDS011;53237;46.158;14.604;2023-03-01T04:50:59;21.45;;;17.92;;
66425;SDS011;53237;46.158;14.604;2023-03-01T04:53:26;20.42;;;18.08;;
66425;SDS011;53237;46.158;14.604;2023-03-01T04:55:53;23.75;;;18.73;;
66425;SDS011;53237;46.158;14.604;2023-03-01T04:58:19;17.80;;;15.68;;
66425;SDS011;53237;46.158;14.604;2023-03-01T05:00:45;21.67;;;17.27;;
66425;SDS011;53237;46.158;14.604;2023-03-01T05:03:11;21.02;;;17.15;;
66425;SDS011;53237;46.158;14.604;2023-03-01T05:05:38;22.70;;;18.20;;
66425;SDS011;53237;46.158;14.604;2023-03-01T05:08:07;22.23;;;17.85;;
66425;SDS011;53237;46.158;14.604;2023-03-01T05:10:34;20.27;;;17.58;;
66425;SDS011;53237;46.158;14.604;2023-03-01T05:13:01;19.25;;;16.63;;
66425;SDS011;53237;46.158;14.604;2023-03-01T05:15:27;20.95;;;17.75;;
66425;SDS011;53237;46.158;14.604;2023-03-01T05:17:55;17.75;;;15.75;;
66425;SDS011;53237;46.158;14.604;2023-03-01T05:20:23;20.08;;;17.15;;
66425;SDS011;53237;46.158;14.604;2023-03-01T05:22:54;17.92;;;16.02;;
66425;SDS011;53237;46.158;14.604;2023-03-01T05:25:21;19.05;;;16.30;;
66425;SDS011;53237;46.158;14.604;2023-03-01T05:27:47;19.55;;;16.77;;
66425;SDS011;53237;46.158;14.604;2023-03-01T05:30:13;22.17;;;18.67;;
66425;SDS011;53237;46.158;14.604;2023-03-01T05:32:43;21.20;;;17.88;;
66425;SDS011;53237;46.158;14.604;2023-03-01T05:35:11;20.35;;;17.45;;
66425;SDS011;53237;46.158;14.604;2023-03-01T05:37:38;20.52;;;17.83;;
66425;SDS011;53237;46.158;14.604;2023-03-01T05:40:05;23.67;;;19.33;;
66425;SDS011;53237;46.158;14.604;2023-03-01T05:42:40;22.27;;;18.42;;
66425;SDS011;53237;46.158;14.604;2023-03-01T05:45:06;22.20;;;18.90;;
66425;SDS011;53237;46.158;14.604;2023-03-01T05:47:34;25.02;;;20.17;;
66425;SDS011;53237;46.158;14.604;2023-03-01T05:50:00;21.25;;;18.35;;
66425;SDS011;53237;46.158;14.604;2023-03-01T05:52:26;22.85;;;18.20;;
66425;SDS011;53237;46.158;14.604;2023-03-01T05:54:52;20.23;;;17.50;;
66425;SDS011;53237;46.158;14.604;2023-03-01T05:57:18;26.08;;;21.35;;
66425;SDS011;53237;46.158;14.604;2023-03-01T05:59:45;22.73;;;19.48;;
66425;SDS011;53237;46.158;14.604;2023-03-01T06:02:11;23.75;;;18.13;;
66425;SDS011;53237;46.158;14.604;2023-03-01T06:04:37;19.67;;;17.55;;
66425;SDS011;53237;46.158;14.604;2023-03-01T06:07:03;23.33;;;18.75;;
66425;SDS011;53237;46.158;14.604;2023-03-01T06:09:29;22.55;;;17.90;;
66425;SDS011;53237;46.158;14.604;2023-03-01T06:11:55;22.52;;;19.10;;
66425;SDS011;53237;46.158;14.604;2023-03-01T06:14:21;23.40;;;18.88;;
66425;SDS011;53237;46.158;14.604;2023-03-01T06:16:47;21.95;;;18.20;;
66425;SDS011;53237;46.158;14.604;2023-03-01T06:19:13;20.30;;;17.17;;
66425;SDS011;53237;46.158;14.604;2023-03-01T06:21:39;21.50;;;18.23;;
66425;SDS011;53237;46.158;14.604;2023-03-01T06:24:05;20.60;;;17.35;;
66425;SDS011;53237;46.158;14.604;2023-03-01T06:26:32;22.95;;;18.73;;
66425;SDS011;53237;46.158;14.604;2023-03-01T06:28:58;23.77;;;19.85;;
66425;SDS011;53237;46.158;14.604;2023-03-01T06:31:24;22.48;;;18.70;;
66425;SDS011;53237;46.158;14.604;2023-03-01T06:33:50;23.38;;;19.15;;
66425;SDS011;53237;46.158;14.604;2023-03-01T06:36:16;23.05;;;19.58;;
66425;SDS011;53237;46.158;14.604;2023-03-01T06:38:43;22.75;;;18.42;;
66425;SDS011;53237;46.158;14.604;2023-03-01T06:41:09;24.70;;;19.75;;
66425;SDS011;53237;46.158;14.604;2023-03-01T06:43:35;22.55;;;17.63;;
66425;SDS011;53237;46.158;14.604;2023-03-01T06:46:05;25.35;;;19.83;;
66425;SDS011;53237;46.158;14.604;2023-03-01T06:48:34;22.40;;;19.17;;
66425;SDS011;53237;46.158;14.604;2023-03-01T06:51:01;23.83;;;20.98;;
66425;SDS011;53237;46.158;14.604;2023-03-01T06:53:27;22.17;;;18.95;;
66425;SDS011;53237;46.158;14.604;2023-03-01T06:55:54;27.63;;;22.35;;
66425;SDS011;53237;46.158;14.604;2023-03-01T06:58:20;26.90;;;23.20;;
66425;SDS011;53237;46.158;14.604;2023-03-01T07:00:46;31.52;;;26.73;;
66425;SDS011;53237;46.158;14.604;2023-03-01T07:03:12;29.02;;;24.08;;
66425;SDS011;53237;46.158;14.604;2023-03-01T07:05:38;28.45;;;24.38;;
66425;SDS011;53237;46.158;14.604;2023-03-01T07:08:04;30.45;;;25.30;;
66425;SDS011;53237;46.158;14.604;2023-03-01T07:10:30;29.63;;;23.40;;
66425;SDS011;53237;46.158;14.604;2023-03-01T07:12:57;29.30;;;24.52;;
66425;SDS011;53237;46.158;14.604;2023-03-01T07:15:24;30.95;;;24.55;;
66425;SDS011;53237;46.158;14.604;2023-03-01T07:17:50;34.35;;;27.83;;
66425;SDS011;53237;46.158;14.604;2023-03-01T07:20:17;33.08;;;25.27;;
66425;SDS011;53237;46.158;14.604;2023-03-01T07:22:43;29.27;;;24.27;;
66425;SDS011;53237;46.158;14.604;2023-03-01T07:25:10;31.30;;;25.77;;
66425;SDS011;53237;46.158;14.604;2023-03-01T07:27:36;34.40;;;27.05;;
66425;SDS011;53237;46.158;14.604;2023-03-01T07:30:02;29.48;;;23.95;;
66425;SDS011;53237;46.158;14.604;2023-03-01T07:32:28;30.10;;;23.75;;
66425;SDS011;53237;46.158;14.604;2023-03-01T07:34:54;44.85;;;30.85;;
66425;SDS011;53237;46.158;14.604;2023-03-01T07:37:20;32.67;;;26.85;;
66425;SDS011;53237;46.158;14.604;2023-03-01T07:39:46;35.78;;;27.95;;
66425;SDS011;53237;46.158;14.604;2023-03-01T07:42:12;35.40;;;27.33;;
66425;SDS011;53237;46.158;14.604;2023-03-01T07:44:38;34.25;;;28.58;;
66425;SDS011;53237;46.158;14.604;2023-03-01T07:47:04;29.77;;;24.65;;
66425;SDS011;53237;46.158;14.604;2023-03-01T07:49:30;33.03;;;26.70;;
66425;SDS011;53237;46.158;14.604;2023-03-01T07:51:56;38.05;;;27.95;;
66425;SDS011;53237;46.158;14.604;2023-03-01T07:54:23;37.95;;;29.75;;
66425;SDS011;53237;46.158;14.604;2023-03-01T07:56:49;39.63;;;30.33;;
66425;SDS011;53237;46.158;14.604;2023-03-01T07:59:15;32.55;;;25.70;;
66425;SDS011;53237;46.158;14.604;2023-03-01T08:01:41;30.42;;;24.90;;
66425;SDS011;53237;46.158;14.604;2023-03-01T08:04:07;33.60;;;27.17;;
66425;SDS011;53237;46.158;14.604;2023-03-01T08:06:34;33.95;;;26.60;;
66425;SDS011;53237;46.158;14.604;2023-03-01T08:09:00;33.38;;;26.70;;
66425;SDS011;53237;46.158;14.604;2023-03-01T08:11:26;31.48;;;27.15;;
66425;SDS011;53237;46.158;14.604;2023-03-01T08:13:55;30.13;;;25.55;;
66425;SDS011;53237;46.158;14.604;2023-03-01T08:16:22;34.97;;;26.13;;
66425;SDS011;53237;46.158;14.604;2023-03-01T08:18:48;33.35;;;26.33;;
66425;SDS011;53237;46.158;14.604;2023-03-01T08:21:15;38.45;;;29.65;;
66425;SDS011;53237;46.158;14.604;2023-03-01T08:23:42;31.67;;;26.10;;
66425;SDS011;53237;46.158;14.604;2023-03-01T08:26:09;31.77;;;26.15;;
66425;SDS011;53237;46.158;14.604;2023-03-01T08:28:36;29.73;;;24.65;;
66425;SDS011;53237;46.158;14.604;2023-03-01T08:31:02;30.98;;;25.35;;
66425;SDS011;53237;46.158;14.604;2023-03-01T08:33:28;31.52;;;26.25;;
66425;SDS011;53237;46.158;14.604;2023-03-01T08:36:02;31.45;;;25.83;;
66425;SDS011;53237;46.158;14.604;2023-03-01T08:38:28;29.20;;;24.40;;
66425;SDS011;53237;46.158;14.604;2023-03-01T08:40:54;28.63;;;24.52;;
66425;SDS011;53237;46.158;14.604;2023-03-01T08:43:20;29.08;;;24.25;;
66425;SDS011;53237;46.158;14.604;2023-03-01T08:45:49;25.67;;;22.63;;
66425;SDS011;53237;46.158;14.604;2023-03-01T08:48:15;31.58;;;25.00;;
66425;SDS011;53237;46.158;14.604;2023-03-01T08:50:43;37.40;;;28.10;;
66425;SDS011;53237;46.158;14.604;2023-03-01T08:53:09;31.05;;;26.20;;
66425;SDS011;53237;46.158;14.604;2023-03-01T08:55:35;29.15;;;24.60;;
66425;SDS011;53237;46.158;14.604;2023-03-01T08:58:01;26.67;;;22.38;;
66425;SDS011;53237;46.158;14.604;2023-03-01T09:00:27;26.10;;;22.02;;
66425;SDS011;53237;46.158;14.604;2023-03-01T09:02:53;28.25;;;23.35;;
66425;SDS011;53237;46.158;14.604;2023-03-01T09:05:19;25.85;;;21.83;;
66425;SDS011;53237;46.158;14.604;2023-03-01T09:07:45;27.70;;;22.98;;
66425;SDS011;53237;46.158;14.604;2023-03-01T09:10:11;25.20;;;21.80;;
66425;SDS011;53237;46.158;14.604;2023-03-01T09:12:37;26.30;;;22.88;;
66425;SDS011;53237;46.158;14.604;2023-03-01T09:15:03;27.05;;;22.05;;
66425;SDS011;53237;46.158;14.604;2023-03-01T09:17:29;26.00;;;22.55;;
66425;SDS011;53237;46.158;14.604;2023-03-01T09:19:55;25.52;;;22.52;;
66425;SDS011;53237;46.158;14.604;2023-03-01T09:22:21;26.77;;;22.00;;
66425;SDS011;53237;46.158;14.604;2023-03-01T09:24:47;24.23;;;21.05;;
66425;SDS011;53237;46.158;14.604;2023-03-01T09:27:13;26.73;;;22.95;;
66425;SDS011;53237;46.158;14.604;2023-03-01T09:29:39;26.08;;;22.10;;
66425;SDS011;53237;46.158;14.604;2023-03-01T09:32:05;27.05;;;23.00;;
66425;SDS011;53237;46.158;14.604;2023-03-01T09:34:33;24.33;;;21.25;;
66425;SDS011;53237;46.158;14.604;2023-03-01T09:37:19;28.80;;;22.60;;
66425;SDS011;53237;46.158;14.604;2023-03-01T09:39:45;30.20;;;23.35;;
66425;SDS011;53237;46.158;14.604;2023-03-01T09:42:11;25.92;;;23.10;;
66425;SDS011;53237;46.158;14.604;2023-03-01T09:44:40;28.42;;;25.38;;
66425;SDS011;53237;46.158;14.604;2023-03-01T09:47:12;26.05;;;22.13;;
66425;SDS011;53237;46.158;14.604;2023-03-01T09:49:40;23.65;;;21.17;;
66425;SDS011;53237;46.158;14.604;2023-03-01T09:54:46;28.48;;;23.25;;
66425;SDS011;53237;46.158;14.604;2023-03-01T09:59:48;27.05;;;23.65;;
66425;SDS011;53237;46.158;14.604;2023-03-01T10:02:23;28.58;;;24.10;;
66425;SDS011;53237;46.158;14.604;2023-03-01T10:04:54;29.10;;;25.60;;
66425;SDS011;53237;46.158;14.604;2023-03-01T10:07:30;30.15;;;26.20;;
66425;SDS011;53237;46.158;14.604;2023-03-01T10:09:58;27.42;;;23.63;;
66425;SDS011;53237;46.158;14.604;2023-03-01T10:12:27;28.17;;;23.88;;
66425;SDS011;53237;46.158;14.604;2023-03-01T10:14:55;26.38;;;23.17;;
66425;SDS011;53237;46.158;14.604;2023-03-01T10:17:32;27.52;;;24.55;;
66425;SDS011;53237;46.158;14.604;2023-03-01T10:20:10;27.35;;;24.10;;
66425;SDS011;53237;46.158;14.604;2023-03-01T10:22:39;27.60;;;24.40;;
66425;SDS011;53237;46.158;14.604;2023-03-01T10:25:05;26.67;;;22.65;;
66425;SDS011;53237;46.158;14.604;2023-03-01T10:27:35;27.85;;;23.08;;
66425;SDS011;53237;46.158;14.604;2023-03-01T10:32:31;36.92;;;27.73;;
66425;SDS011;53237;46.158;14.604;2023-03-01T10:34:58;34.65;;;28.17;;
66425;SDS011;53237;46.158;14.604;2023-03-01T10:37:24;31.02;;;26.40;;
66425;SDS011;53237;46.158;14.604;2023-03-01T10:40:00;29.88;;;25.75;;
66425;SDS011;53237;46.158;14.604;2023-03-01T10:42:35;29.13;;;24.52;;
66425;SDS011;53237;46.158;14.604;2023-03-01T10:45:16;28.75;;;24.20;;
66425;SDS011;53237;46.158;14.604;2023-03-01T10:47:42;31.88;;;27.15;;
66425;SDS011;53237;46.158;14.604;2023-03-01T10:50:21;29.65;;;25.05;;
66425;SDS011;53237;46.158;14.604;2023-03-01T10:52:57;24.45;;;21.00;;
66425;SDS011;53237;46.158;14.604;2023-03-01T10:55:26;25.30;;;21.88;;
66425;SDS011;53237;46.158;14.604;2023-03-01T11:00:45;26.27;;;23.42;;
66425;SDS011;53237;46.158;14.604;2023-03-01T11:03:13;24.38;;;21.30;;
66425;SDS011;53237;46.158;14.604;2023-03-01T11:05:57;25.27;;;21.02;;
66425;SDS011;53237;46.158;14.604;2023-03-01T11:11:05;23.13;;;20.15;;
66425;SDS011;53237;46.158;14.604;2023-03-01T11:13:32;24.83;;;21.27;;
66425;SDS011;53237;46.158;14.604;2023-03-01T11:15:59;23.02;;;20.42;;
66425;SDS011;53237;46.158;14.604;2023-03-01T11:18:25;23.55;;;20.38;;
66425;SDS011;53237;46.158;14.604;2023-03-01T11:20:53;22.77;;;20.38;;
66425;SDS011;53237;46.158;14.604;2023-03-01T11:23:21;22.25;;;19.45;;
66425;SDS011;53237;46.158;14.604;2023-03-01T11:25:49;22.10;;;19.65;;
66425;SDS011;53237;46.158;14.604;2023-03-01T11:28:17;21.33;;;18.50;;
66425;SDS011;53237;46.158;14.604;2023-03-01T11:30:50;20.38;;;17.60;;
66425;SDS011;53237;46.158;14.604;2023-03-01T11:33:40;19.35;;;17.35;;
66425;SDS011;53237;46.158;14.604;2023-03-01T11:36:13;20.05;;;17.95;;
66425;SDS011;53237;46.158;14.604;2023-03-01T11:38:42;21.15;;;18.92;;
66425;SDS011;53237;46.158;14.604;2023-03-01T11:41:12;19.98;;;16.85;;
66425;SDS011;53237;46.158;14.604;2023-03-01T11:48:41;18.48;;;16.27;;
66425;SDS011;53237;46.158;14.604;2023-03-01T11:51:13;18.40;;;16.38;;
66425;SDS011;53237;46.158;14.604;2023-03-01T11:56:16;17.17;;;15.38;;
66425;SDS011;53237;46.158;14.604;2023-03-01T12:11:56;20.80;;;17.75;;
66425;SDS011;53237;46.158;14.604;2023-03-01T12:27:16;21.02;;;17.38;;
66425;SDS011;53237;46.158;14.604;2023-03-01T12:29:56;19.90;;;16.15;;
66425;SDS011;53237;46.158;14.604;2023-03-01T12:42:58;18.02;;;15.55;;
66425;SDS011;53237;46.158;14.604;2023-03-01T12:45:48;20.30;;;18.10;;
66425;SDS011;53237;46.158;14.604;2023-03-01T12:50:51;27.27;;;21.35;;
66425;SDS011;53237;46.158;14.604;2023-03-01T12:53:29;24.02;;;20.58;;
66425;SDS011;53237;46.158;14.604;2023-03-01T12:55:59;26.20;;;21.67;;
66425;SDS011;53237;46.158;14.604;2023-03-01T13:08:39;22.67;;;19.75;;
66425;SDS011;53237;46.158;14.604;2023-03-01T13:11:18;24.38;;;20.50;;
66425;SDS011;53237;46.158;14.604;2023-03-01T13:13:45;30.58;;;25.45;;
66425;SDS011;53237;46.158;14.604;2023-03-01T13:18:47;26.55;;;22.55;;
66425;SDS011;53237;46.158;14.604;2023-03-01T13:21:13;28.17;;;22.58;;
66425;SDS011;53237;46.158;14.604;2023-03-01T13:23:54;24.55;;;21.65;;
66425;SDS011;53237;46.158;14.604;2023-03-01T13:26:20;26.05;;;22.67;;
66425;SDS011;53237;46.158;14.604;2023-03-01T13:28:53;33.70;;;27.58;;
66425;SDS011;53237;46.158;14.604;2023-03-01T13:33:49;29.27;;;26.10;;
66425;SDS011;53237;46.158;14.604;2023-03-01T13:46:38;23.65;;;20.85;;
66425;SDS011;53237;46.158;14.604;2023-03-01T13:49:09;21.60;;;19.23;;
66425;SDS011;53237;46.158;14.604;2023-03-01T13:51:37;19.48;;;16.92;;
66425;SDS011;53237;46.158;14.604;2023-03-01T13:54:03;18.90;;;16.27;;
66425;SDS011;53237;46.158;14.604;2023-03-01T13:56:33;16.75;;;14.95;;
66425;SDS011;53237;46.158;14.604;2023-03-01T13:59:02;15.93;;;13.35;;
66425;SDS011;53237;46.158;14.604;2023-03-01T14:01:33;16.50;;;13.90;;
66425;SDS011;53237;46.158;14.604;2023-03-01T14:04:00;16.55;;;13.95;;
66425;SDS011;53237;46.158;14.604;2023-03-01T14:06:30;18.05;;;14.68;;
66425;SDS011;53237;46.158;14.604;2023-03-01T14:11:37;14.98;;;12.43;;
66425;SDS011;53237;46.158;14.604;2023-03-01T14:19:23;14.43;;;12.93;;
66425;SDS011;53237;46.158;14.604;2023-03-01T14:24:56;13.73;;;11.60;;
66425;SDS011;53237;46.158;14.604;2023-03-01T14:27:23;13.55;;;11.90;;
66425;SDS011;53237;46.158;14.604;2023-03-01T14:30:10;13.02;;;11.63;;
66425;SDS011;53237;46.158;14.604;2023-03-01T14:32:38;14.02;;;11.95;;
66425;SDS011;53237;46.158;14.604;2023-03-01T14:35:18;13.90;;;11.80;;
66425;SDS011;53237;46.158;14.604;2023-03-01T14:37:44;14.55;;;12.48;;
66425;SDS011;53237;46.158;14.604;2023-03-01T14:40:19;15.77;;;12.38;;
66425;SDS011;53237;46.158;14.604;2023-03-01T14:42:45;13.93;;;12.10;;
66425;SDS011;53237;46.158;14.604;2023-03-01T14:45:11;14.32;;;11.98;;
66425;SDS011;53237;46.158;14.604;2023-03-01T14:47:38;12.80;;;11.10;;
66425;SDS011;53237;46.158;14.604;2023-03-01T14:50:09;12.00;;;10.65;;
66425;SDS011;53237;46.158;14.604;2023-03-01T14:52:40;12.50;;;11.15;;
66425;SDS011;53237;46.158;14.604;2023-03-01T14:55:17;12.93;;;11.07;;
66425;SDS011;53237;46.158;14.604;2023-03-01T14:57:45;11.48;;;10.20;;
66425;SDS011;53237;46.158;14.604;2023-03-01T15:00:16;14.23;;;10.85;;
66425;SDS011;53237;46.158;14.604;2023-03-01T15:02:43;12.07;;;10.57;;
66425;SDS011;53237;46.158;14.604;2023-03-01T15:05:09;13.07;;;11.75;;
66425;SDS011;53237;46.158;14.604;2023-03-01T15:07:39;12.57;;;10.50;;
66425;SDS011;53237;46.158;14.604;2023-03-01T15:10:06;13.35;;;10.27;;
66425;SDS011;53237;46.158;14.604;2023-03-01T15:15:18;11.50;;;10.10;;
66425;SDS011;53237;46.158;14.604;2023-03-01T15:17:48;11.77;;;9.68;;
66425;SDS011;53237;46.158;14.604;2023-03-01T15:20:17;11.20;;;9.77;;
66425;SDS011;53237;46.158;14.604;2023-03-01T15:22:46;10.77;;;9.68;;
66425;SDS011;53237;46.158;14.604;2023-03-01T15:25:16;10.18;;;9.15;;
66425;SDS011;53237;46.158;14.604;2023-03-01T15:27:45;10.05;;;8.93;;
66425;SDS011;53237;46.158;14.604;2023-03-01T15:30:25;11.02;;;9.25;;
66425;SDS011;53237;46.158;14.604;2023-03-01T15:35:44;9.65;;;8.70;;
66425;SDS011;53237;46.158;14.604;2023-03-01T15:40:54;9.80;;;8.50;;
66425;SDS011;53237;46.158;14.604;2023-03-01T15:43:40;10.73;;;9.57;;
66425;SDS011;53237;46.158;14.604;2023-03-01T15:46:17;11.43;;;10.18;;
66425;SDS011;53237;46.158;14.604;2023-03-01T15:48:47;8.90;;;8.05;;
66425;SDS011;53237;46.158;14.604;2023-03-01T15:51:14;9.98;;;8.95;;
66425;SDS011;53237;46.158;14.604;2023-03-01T15:53:41;10.10;;;8.60;;
66425;SDS011;53237;46.158;14.604;2023-03-01T15:56:08;11.07;;;8.55;;
66425;SDS011;53237;46.158;14.604;2023-03-01T15:58:34;9.45;;;8.45;;
66425;SDS011;53237;46.158;14.604;2023-03-01T16:01:00;9.38;;;8.30;;
66425;SDS011;53237;46.158;14.604;2023-03-01T16:03:26;8.80;;;7.55;;
66425;SDS011;53237;46.158;14.604;2023-03-01T16:05:53;10.10;;;8.15;;
66425;SDS011;53237;46.158;14.604;2023-03-01T16:08:19;8.82;;;7.10;;